Time;durP1;ratioP1;P1;durP2;ratioP2;P2;SDS_P1;SDS_P2;PMS_P1;PMS_P2;Temp;Humidity;BMP_temperature;BMP_pressure;BME280_temperature;BME280_humidity;BME280_pressure;Samples;Min_cycle;Max_cycle;Signal;HPM_P1;HPM_P2
2023/10/13 00:03:15;;;;;;;30.77;13.10;;;;;;;10.00;100.00;100699.09;5035468;57;1144951;-72
2023/10/13 00:08:22;;;;;;;40.53;14.47;;;;;;;9.88;100.00;100694.70;5084022;56;1145232;-72
2023/10/13 00:13:34;;;;;;;47.50;14.90;;;;;;;9.82;100.00;100687.20;5083373;56;1142993;-73
2023/10/13 00:18:48;;;;;;;64.90;18.87;;;;;;;9.79;100.00;100680.81;5099999;56;1143040;-72
2023/10/13 00:23:54;;;;;;;68.17;20.20;;;;;;;9.75;100.00;100676.25;5011265;56;1142933;-72
2023/10/13 00:29:15;;;;;;;65.47;18.87;;;;;;;9.70;100.00;100676.20;4972604;57;1142679;-73
2023/10/13 00:34:20;;;;;;;51.90;14.03;;;;;;;9.64;100.00;100680.59;4948116;58;1142795;-73
2023/10/13 00:39:28;;;;;;;48.17;12.97;;;;;;;9.47;100.00;100669.42;4968470;58;1142946;-72
2023/10/13 00:44:43;;;;;;;43.67;11.40;;;;;;;9.39;100.00;100659.05;4948146;57;1142777;-72
2023/10/13 00:49:40;;;;;;;41.40;12.57;;;;;;;9.43;100.00;100666.66;4943280;58;1143141;-72
2023/10/13 00:54:48;;;;;;;42.85;12.68;;;;;;;9.50;100.00;100684.21;4967459;58;1143009;-72
2023/10/13 01:00:12;;;;;;;122.20;40.52;;;;;;;9.38;100.00;100683.76;4948715;58;1142617;-72
2023/10/13 01:05:19;;;;;;;39.17;13.30;;;;;;;9.36;100.00;100675.09;5028985;57;1144815;-72
2023/10/13 01:10:19;;;;;;;34.60;10.53;;;;;;;9.32;100.00;100661.27;5054380;57;1142985;-72
2023/10/13 01:15:33;;;;;;;29.57;9.63;;;;;;;9.32;100.00;100664.41;5034974;57;1143108;-72
2023/10/13 01:20:38;;;;;;;29.85;8.50;;;;;;;9.31;100.00;100663.56;5098745;56;1140776;-72
2023/10/13 01:25:40;;;;;;;23.07;7.37;;;;;;;9.20;100.00;100658.17;5140023;56;1140736;-72
2023/10/13 01:30:53;;;;;;;21.13;6.63;;;;;;;9.08;100.00;100656.39;5077374;56;1140901;-72
2023/10/13 01:35:59;;;;;;;21.97;7.33;;;;;;;8.96;100.00;100639.63;5042695;57;1140881;-72
2023/10/13 01:41:08;;;;;;;17.30;7.04;;;;;;;8.85;100.00;100641.31;5042749;57;1140825;-72
2023/10/13 01:46:15;;;;;;;20.77;7.35;;;;;;;8.84;100.00;100657.61;5062869;57;1140724;-72
2023/10/13 01:51:23;;;;;;;28.67;7.73;;;;;;;8.93;100.00;100654.80;5042905;57;1140694;-72
2023/10/13 01:56:30;;;;;;;44.97;8.50;;;;;;;9.02;100.00;100643.61;5043129;57;1140751;-73
2023/10/13 02:01:36;;;;;;;51.10;10.17;;;;;;;9.02;100.00;100644.45;5062605;57;1140845;-72
2023/10/13 02:06:43;;;;;;;28.33;8.23;;;;;;;9.01;100.00;100640.63;5042711;57;1142979;-72
2023/10/13 02:11:54;;;;;;;41.53;7.67;;;;;;;9.02;100.00;100647.56;5042537;57;1141105;-72
2023/10/13 02:17:11;;;;;;;93.40;9.50;;;;;;;8.96;100.00;100659.88;5041867;57;1141103;-72
2023/10/13 02:22:04;;;;;;;102.80;11.60;;;;;;;8.94;100.00;100652.54;5058921;56;1141193;-73
2023/10/13 02:27:15;;;;;;;41.88;9.13;;;;;;;8.68;100.00;100666.19;5042745;56;1145354;-72
2023/10/13 02:32:21;;;;;;;20.93;7.17;;;;;;;8.68;100.00;100666.19;5049584;56;1140703;-72
2023/10/13 02:37:27;;;;;;;30.68;8.10;;;;;;;8.61;100.00;100651.72;5072750;56;1140916;-72
2023/10/13 02:42:33;;;;;;;26.20;8.13;;;;;;;8.62;100.00;100654.72;5053070;56;1140818;-72
2023/10/13 02:47:38;;;;;;;26.83;6.97;;;;;;;8.61;100.00;100657.83;5053633;56;1140663;-72
2023/10/13 02:52:47;;;;;;;17.37;6.00;;;;;;;8.57;100.00;100655.02;5073138;57;1140699;-72
2023/10/13 02:57:55;;;;;;;14.27;5.03;;;;;;;8.65;100.00;100663.28;5052565;57;1140743;-73
2023/10/13 03:02:59;;;;;;;17.25;6.50;;;;;;;8.77;100.00;100654.53;5053637;57;1141000;-72
2023/10/13 03:08:06;;;;;;;15.47;6.87;;;;;;;8.71;100.00;100652.30;5073967;57;1141069;-72
2023/10/13 03:13:11;;;;;;;27.47;8.27;;;;;;;8.63;100.00;100651.98;5053698;57;1140842;-72
2023/10/13 03:18:18;;;;;;;21.87;7.13;;;;;;;8.68;100.00;100645.09;5053467;57;1140922;-72
2023/10/13 03:23:26;;;;;;;25.77;7.80;;;;;;;8.77;100.00;100648.41;5147409;56;1140800;-73
2023/10/13 03:28:34;;;;;;;22.40;8.23;;;;;;;8.83;100.00;100649.80;5127581;56;1140558;-73
2023/10/13 03:33:44;;;;;;;19.80;7.17;;;;;;;8.90;100.00;100646.63;5055285;56;1140662;-73
2023/10/13 03:38:54;;;;;;;10.53;5.50;;;;;;;8.91;100.00;100631.17;5077166;56;1140860;-72
2023/10/13 03:44:07;;;;;;;14.07;6.00;;;;;;;8.96;100.00;100626.43;5056984;56;1140904;-73
2023/10/13 03:49:06;;;;;;;13.68;5.90;;;;;;;9.08;100.00;100631.33;5056275;56;1150107;-73
2023/10/13 03:54:15;;;;;;;22.25;8.03;;;;;;;9.13;100.00;100620.83;5077458;57;1140916;-72
2023/10/13 03:59:18;;;;;;;18.42;7.55;;;;;;;9.15;100.00;100607.53;5057737;57;1140863;-72
2023/10/13 04:05:09;;;;;;;16.77;8.17;;;;;;;9.24;100.00;100609.98;5057614;57;1140665;-71
2023/10/13 04:36:21;;;;;;;43.43;19.90;;;;;;;9.63;100.00;100585.16;5064112;56;1142866;-73
2023/10/13 04:41:43;;;;;;;39.10;18.03;;;;;;;9.73;100.00;100567.71;5120587;56;1142926;-72
2023/10/13 04:57:32;;;;;;;29.50;12.47;;;;;;;9.92;100.00;100561.45;5035567;56;1142651;-72
2023/10/13 05:45:40;;;;;;;13.60;6.78;;;;;;;10.52;100.00;100563.94;5119133;56;1142754;-72
2023/10/13 05:50:57;;;;;;;24.03;7.97;;;;;;;10.60;100.00;100566.46;5125187;56;1142997;-72
2023/10/13 06:29:00;;;;;;;22.70;9.03;;;;;;;11.17;100.00;100579.11;5086161;56;1145028;-72
2023/10/13 06:33:16;;;;;;;34.70;18.17;;;;;;;11.23;100.00;100572.50;5071256;56;1143123;-73
2023/10/13 06:38:22;;;;;;;18.48;6.00;;;;;;;11.29;100.00;100572.02;5123073;56;1144945;-72
2023/10/13 06:43:32;;;;;;;26.60;8.87;;;;;;;11.35;100.00;100576.81;5100352;56;1142921;-72
2023/10/13 06:48:35;;;;;;;32.20;12.60;;;;;;;11.40;100.00;100575.97;5094440;56;1142835;-72
2023/10/13 06:53:46;;;;;;;38.00;17.87;;;;;;;11.47;100.00;100573.66;5113265;56;1145046;-72
2023/10/13 06:58:50;;;;;;;28.20;7.30;;;;;;;11.51;100.00;100565.34;5094307;56;1144966;-72
2023/10/13 07:04:01;;;;;;;31.12;9.43;;;;;;;11.59;100.00;100570.04;5091685;56;1142959;-72
2023/10/13 07:09:15;;;;;;;37.38;12.95;;;;;;;11.63;100.00;100561.70;5128983;56;1142800;-73
2023/10/13 07:14:23;;;;;;;36.00;10.18;;;;;;;11.69;100.00;100562.17;5096689;56;1144768;-72
2023/10/13 07:19:24;;;;;;;54.70;21.17;;;;;;;11.72;100.00;100566.75;5082571;56;1145008;-72
2023/10/13 07:24:39;;;;;;;42.47;11.73;;;;;;;11.78;100.00;100565.42;5145950;56;1144912;-72
2023/10/13 07:29:42;;;;;;;35.63;12.33;;;;;;;11.85;100.00;100562.64;5141626;56;1145050;-73
2023/10/13 07:34:48;;;;;;;38.47;13.23;;;;;;;11.87;100.00;100549.63;5129949;56;1144722;-72
2023/10/13 07:39:57;;;;;;;46.60;13.87;;;;;;;11.90;100.00;100533.95;5071336;56;1145237;-72
2023/10/13 07:45:04;;;;;;;43.27;13.03;;;;;;;11.93;100.00;100538.50;5078393;56;1145305;-72
2023/10/13 07:50:09;;;;;;;41.93;14.10;;;;;;;12.02;100.00;100538.23;5035376;56;1144965;-72
2023/10/13 07:55:20;;;;;;;39.25;13.18;;;;;;;12.09;100.00;100538.55;5034710;56;1144854;-72
2023/10/13 08:00:46;;;;;;;43.08;13.95;;;;;;;12.13;100.00;100539.50;5055847;56;1144669;-72
2023/10/13 08:05:55;;;;;;;52.20;19.23;;;;;;;12.18;100.00;100537.80;5038218;55;1144698;-72
2023/10/13 08:10:47;;;;;;;38.63;16.43;;;;;;;12.25;100.00;100529.66;5038405;56;1144834;-72
2023/10/13 08:15:53;;;;;;;38.77;15.10;;;;;;;12.31;100.00;100515.90;5035383;56;1144951;-72
2023/10/13 08:21:15;;;;;;;37.60;15.23;;;;;;;12.38;100.00;100506.44;5087901;56;1144735;-73
2023/10/13 08:31:41;;;;;;;32.30;13.43;;;;;;;12.57;100.00;100497.75;5119297;56;1144924;-73
2023/10/13 08:36:45;;;;;;;41.50;17.07;;;;;;;12.68;100.00;100491.86;5092573;56;1144935;-72
2023/10/13 08:42:13;;;;;;;38.97;15.83;;;;;;;12.78;100.00;100485.77;5055157;56;1145060;-73
2023/10/13 08:47:06;;;;;;;35.73;15.60;;;;;;;12.85;100.00;100490.39;5073100;56;1145224;-73
2023/10/13 08:53:09;;;;;;;37.37;14.77;;;;;;;12.94;100.00;100486.95;5083985;56;1145021;-73
2023/10/13 08:57:49;;;;;;;34.73;16.42;;;;;;;13.02;100.00;100483.12;5037946;57;1145237;-73
2023/10/13 09:07:54;;;;;;;41.23;17.27;;;;;;;13.21;100.00;100490.81;5056988;56;1145243;-73
2023/10/13 09:13:03;;;;;;;39.57;18.27;;;;;;;13.31;100.00;100463.77;5063158;56;1145303;-73
2023/10/13 09:18:15;;;;;;;37.93;19.17;;;;;;;13.41;100.00;100469.12;5032916;56;1145254;-73
2023/10/13 09:23:44;;;;;;;31.97;16.77;;;;;;;13.51;100.00;100460.66;5043485;57;1144957;-73
2023/10/13 09:28:34;;;;;;;41.13;19.00;;;;;;;13.65;100.00;100467.72;5050830;56;1145102;-73
2023/10/13 09:33:50;;;;;;;32.03;18.07;;;;;;;13.77;100.00;100456.94;5075500;56;1145249;-73
2023/10/13 09:39:01;;;;;;;40.70;19.47;;;;;;;13.91;100.00;100439.22;5015323;56;1144668;-73
2023/10/13 09:43:57;;;;;;;30.33;18.50;;;;;;;14.03;100.00;100435.45;5052203;56;1145250;-73
2023/10/13 09:49:08;;;;;;;37.77;17.83;;;;;;;14.13;100.00;100428.27;5027908;57;1145769;-74
2023/10/13 09:54:26;;;;;;;34.55;17.50;;;;;;;14.31;100.00;100421.23;5036569;57;1145245;-72
2023/10/13 09:59:36;;;;;;;34.97;16.90;;;;;;;14.48;100.00;100415.66;5004177;57;1145322;-72
2023/10/13 10:04:51;;;;;;;60.57;31.17;;;;;;;14.79;100.00;100408.23;5005780;57;1145207;-73
2023/10/13 10:10:03;;;;;;;28.13;17.37;;;;;;;15.12;100.00;100401.44;5015645;57;1145045;-73
2023/10/13 10:15:30;;;;;;;27.60;18.57;;;;;;;15.39;100.00;100388.04;5023463;57;1144866;-75
2023/10/13 10:20:51;;;;;;;22.87;14.03;;;;;;;15.64;100.00;100374.94;5046255;57;1145002;-73
2023/10/13 10:25:51;;;;;;;21.03;13.07;;;;;;;15.93;100.00;100359.47;4920195;58;1145146;-74
2023/10/13 10:31:02;;;;;;;23.52;14.55;;;;;;;16.24;100.00;100345.13;5011980;57;1145126;-73
2023/10/13 10:36:17;;;;;;;28.10;14.33;;;;;;;16.45;100.00;100340.23;5038537;57;1144894;-73
2023/10/13 10:41:45;;;;;;;17.40;10.75;;;;;;;16.60;100.00;100335.11;5028548;57;1145096;-73
2023/10/13 10:46:42;;;;;;;34.93;18.07;;;;;;;16.77;100.00;100334.19;5036192;56;1144910;-73
2023/10/13 10:51:46;;;;;;;32.07;14.17;;;;;;;16.96;100.00;100322.88;4992425;57;1145053;-73
2023/10/13 10:56:56;;;;;;;16.23;8.43;;;;;;;17.11;100.00;100323.90;4965152;56;1144838;-73
2023/10/13 11:02:02;;;;;;;19.33;8.80;;;;;;;17.25;100.00;100301.02;4930230;57;1143025;-73
2023/10/13 11:07:08;;;;;;;16.23;8.10;;;;;;;17.38;100.00;100286.64;4979977;57;1142873;-73
2023/10/13 11:12:16;;;;;;;13.46;7.12;;;;;;;17.53;100.00;100286.29;4910376;57;1142868;-73
2023/10/13 11:17:38;;;;;;;11.63;7.37;;;;;;;17.63;100.00;100287.43;4923470;57;1143147;-73
2023/10/13 11:22:42;;;;;;;14.10;6.97;;;;;;;17.69;100.00;100283.62;4966513;57;1143050;-73
2023/10/13 11:28:07;;;;;;;10.77;6.73;;;;;;;17.74;100.00;100273.22;4947707;56;1142857;-73
2023/10/13 11:33:07;;;;;;;7.53;5.33;;;;;;;17.76;100.00;100281.91;4996396;56;1143260;-73
2023/10/13 11:38:25;;;;;;;7.43;5.03;;;;;;;17.76;100.00;100268.53;4987660;57;1140899;-73
2023/10/13 11:43:24;;;;;;;8.15;6.40;;;;;;;17.77;100.00;100253.32;5052091;57;1141211;-73
2023/10/13 11:48:41;;;;;;;8.90;5.40;;;;;;;17.82;100.00;100250.98;5062367;56;1140903;-73
2023/10/13 11:53:42;;;;;;;11.40;5.37;;;;;;;17.85;100.00;100222.05;5104874;56;1140998;-73
2023/10/13 11:58:49;;;;;;;13.47;5.70;;;;;;;17.85;100.00;100222.05;5110038;56;1143036;-73
2023/10/13 12:14:37;;;;;;;16.40;5.65;;;;;;;17.99;100.00;100208.44;5066521;57;1143145;-73
2023/10/13 12:19:40;;;;;;;12.93;4.93;;;;;;;18.00;100.00;100211.45;5010163;56;1142827;-73
2023/10/13 12:24:53;;;;;;;11.87;5.57;;;;;;;18.02;100.00;100210.77;5056844;57;1142863;-73
2023/10/13 12:29:56;;;;;;;11.73;5.17;;;;;;;18.03;100.00;100208.39;5000516;56;1142860;-73
2023/10/13 12:51:07;;;;;;;;;;;;;;;18.07;100.00;100167.41;5025618;57;1140739;-73
2023/10/13 12:56:05;;;;;;;26.07;15.90;;;;;;;18.09;100.00;100158.20;5056393;57;978027;-74
2023/10/13 13:01:13;;;;;;;10.30;5.97;;;;;;;18.17;100.00;100153.31;5012494;57;1146617;-75
2023/10/13 13:06:29;;;;;;;16.62;5.55;;;;;;;18.22;100.00;100137.03;5030440;56;1143153;-73
2023/10/13 13:11:39;;;;;;;17.97;12.57;;;;;;;18.27;100.00;100127.14;5065024;57;1142839;-73
2023/10/13 13:16:42;;;;;;;11.73;5.60;;;;;;;18.30;100.00;100132.14;4927948;58;1145097;-73
2023/10/13 13:21:48;;;;;;;6.23;5.33;;;;;;;18.33;100.00;100116.23;4975019;57;1142816;-73
2023/10/13 13:26:54;;;;;;;5.43;4.33;;;;;;;18.39;100.00;100120.85;4989623;57;1140915;-73
2023/10/13 13:32:00;;;;;;;9.93;6.20;;;;;;;18.42;100.00;100114.64;5037700;57;1140880;-75
2023/10/13 13:37:06;;;;;;;12.77;8.33;;;;;;;18.45;100.00;100106.76;5004526;57;1140914;-75
2023/10/13 13:42:17;;;;;;;10.83;6.70;;;;;;;18.43;100.00;100092.20;4951070;57;1143212;-75
2023/10/13 14:00:38;;;;;;;9.30;5.53;;;;;;;18.44;100.00;100090.37;5096197;56;46188;-74
2023/10/13 14:05:45;;;;;;;8.75;5.42;;;;;;;18.36;100.00;100047.07;5111392;56;1136775;-75
2023/10/13 14:16:17;;;;;;;9.73;6.63;;;;;;;18.41;100.00;100027.80;5121291;56;1140977;-74
2023/10/13 14:21:27;;;;;;;7.50;5.75;;;;;;;18.46;100.00;100048.17;5121502;56;1140863;-74
2023/10/13 14:26:33;;;;;;;4.90;4.50;;;;;;;18.50;100.00;100032.05;5056914;57;1141030;-74
2023/10/13 14:31:39;;;;;;;11.95;6.50;;;;;;;18.50;100.00;100016.81;5063970;56;1141049;-74
2023/10/13 14:36:48;;;;;;;7.08;5.42;;;;;;;18.49;100.00;100019.67;5074241;56;1143044;-73
2023/10/13 14:41:52;;;;;;;8.38;5.83;;;;;;;18.42;100.00;100010.21;5088035;56;1140996;-73
2023/10/13 14:46:58;;;;;;;5.62;5.12;;;;;;;18.39;100.00;99987.81;5073696;56;1236225;-73
2023/10/13 14:52:04;;;;;;;9.83;5.80;;;;;;;18.39;100.00;99974.92;5065758;56;1138924;-72
2023/10/13 14:57:09;;;;;;;7.43;5.70;;;;;;;18.43;100.00;99989.62;5046206;56;1138947;-73
2023/10/13 15:02:16;;;;;;;10.42;6.22;;;;;;;18.46;100.00;99970.52;5071695;56;1138780;-75
2023/10/13 15:07:22;;;;;;;16.97;9.68;;;;;;;18.49;100.00;99962.09;5031801;56;1140838;-73
2023/10/13 15:12:27;;;;;;;6.53;4.97;;;;;;;18.50;100.00;99961.08;5050703;56;1140876;-75
2023/10/13 15:17:38;;;;;;;8.33;5.97;;;;;;;18.51;100.00;99956.05;5083801;55;1138688;-74
2023/10/13 15:22:40;;;;;;;11.22;5.65;;;;;;;18.52;100.00;99933.61;5062519;56;1138940;-75
2023/10/13 15:27:55;;;;;;;7.62;4.83;;;;;;;18.52;100.00;99945.66;5077786;56;1141083;-75
2023/10/13 15:32:55;;;;;;;8.35;4.72;;;;;;;18.52;100.00;99935.78;5073409;56;1138883;-74
2023/10/13 15:38:01;;;;;;;10.28;5.22;;;;;;;18.51;100.00;99919.39;5063479;56;1139199;-74
2023/10/13 15:43:07;;;;;;;7.22;5.45;;;;;;;18.51;100.00;99934.13;5064411;56;1140980;-74
2023/10/13 15:48:15;;;;;;;7.95;5.05;;;;;;;18.50;100.00;99930.28;5127776;56;1139447;-73
2023/10/13 15:53:21;;;;;;;7.83;5.20;;;;;;;18.50;100.00;99927.10;5063920;56;1139146;-74
2023/10/13 15:58:26;;;;;;;7.13;5.00;;;;;;;18.50;100.00;99913.71;5040722;56;1138920;-75
2023/10/13 16:03:32;;;;;;;12.30;8.25;;;;;;;18.50;100.00;99903.00;5047573;56;1138937;-74
2023/10/13 16:08:42;;;;;;;9.63;6.37;;;;;;;18.48;100.00;99894.34;5103816;56;1140767;-75
2023/10/13 16:13:52;;;;;;;14.87;6.85;;;;;;;18.47;100.00;99890.52;5080551;56;1138952;-75
2023/10/13 16:18:57;;;;;;;9.55;6.15;;;;;;;18.47;100.00;99907.92;5128715;56;1140960;-75
2023/10/13 16:24:03;;;;;;;12.23;7.37;;;;;;;18.46;100.00;99895.55;5108833;56;1139223;-74
2023/10/13 16:29:09;;;;;;;12.57;7.00;;;;;;;18.44;100.00;99899.73;5100875;56;1140933;-75
2023/10/13 16:34:16;;;;;;;8.88;6.37;;;;;;;18.42;100.00;99892.39;5112400;56;1140855;-75
2023/10/13 16:39:22;;;;;;;11.97;6.87;;;;;;;18.38;100.00;99880.38;5104817;56;1138841;-75
2023/10/13 16:44:28;;;;;;;15.53;6.80;;;;;;;18.38;100.00;99883.56;5092621;56;1140893;-74
2023/10/13 16:49:33;;;;;;;12.63;5.75;;;;;;;18.35;100.00;99859.33;5128497;56;1140932;-75
2023/10/13 16:54:39;;;;;;;10.23;6.80;;;;;;;18.35;100.00;99855.31;5107414;56;1141085;-76
2023/10/13 16:59:47;;;;;;;32.03;24.65;;;;;;;18.34;100.00;99860.34;5029188;56;1140824;-75
2023/10/13 17:04:57;;;;;;;20.00;11.63;;;;;;;18.33;100.00;99873.44;5037510;56;1142901;-75
2023/10/13 17:10:00;;;;;;;13.05;7.72;;;;;;;18.34;100.00;99859.52;5017442;56;1142988;-75
2023/10/13 17:15:21;;;;;;;20.97;6.92;;;;;;;18.35;100.00;99860.67;5015118;57;1140900;-75
2023/10/13 17:20:24;;;;;;;8.90;5.72;;;;;;;18.40;100.00;99862.80;5034205;57;1140764;-76
2023/10/13 17:25:30;;;;;;;22.43;11.00;;;;;;;18.43;100.00;99849.05;5015427;57;1138789;-76
2023/10/13 17:30:35;;;;;;;11.60;6.33;;;;;;;18.45;100.00;99851.87;5015032;56;1143026;-75
2023/10/13 17:35:42;;;;;;;15.80;7.30;;;;;;;18.45;100.00;99845.68;5047430;56;1140818;-76
2023/10/13 17:40:47;;;;;;;16.27;7.12;;;;;;;18.47;100.00;99843.14;5020070;56;1140773;-75
2023/10/13 17:45:53;;;;;;;10.27;6.00;;;;;;;18.46;100.00;99830.77;5013322;57;1140802;-76
2023/10/13 17:51:00;;;;;;;13.72;7.16;;;;;;;18.48;100.00;99831.92;5029110;57;1141373;-77
2023/10/13 17:56:12;;;;;;;15.55;6.22;;;;;;;18.49;100.00;99814.30;5026792;57;1141133;-75
2023/10/13 18:01:19;;;;;;;14.10;7.73;;;;;;;18.50;100.00;99811.95;5011233;57;1141240;-75
2023/10/13 18:06:25;;;;;;;10.85;6.87;;;;;;;18.48;100.00;99806.48;5036203;56;1140958;-75
2023/10/13 18:11:32;;;;;;;18.47;8.23;;;;;;;18.48;100.00;99812.67;5127863;56;1141051;-75
2023/10/13 18:16:37;;;;;;;25.43;6.70;;;;;;;18.45;100.00;99806.86;5117296;56;1141029;-75
2023/10/13 18:21:41;;;;;;;6.73;5.17;;;;;;;18.43;100.00;99786.95;5118072;56;1140906;-75
2023/10/13 18:26:47;;;;;;;5.90;4.83;;;;;;;18.46;100.00;99799.98;5138434;56;1139073;-75
2023/10/13 18:31:52;;;;;;;13.50;7.25;;;;;;;18.48;100.00;99787.74;5035343;56;1138885;-75
2023/10/13 18:36:59;;;;;;;16.65;6.37;;;;;;;18.49;100.00;99800.08;5035254;57;1141091;-75
2023/10/13 18:42:05;;;;;;;11.53;7.30;;;;;;;18.48;100.00;99791.25;5090328;56;1141049;-75
2023/10/13 18:47:10;;;;;;;17.50;6.78;;;;;;;18.49;100.00;99790.71;5138984;56;1140805;-74
2023/10/13 18:52:15;;;;;;;11.73;6.22;;;;;;;18.49;100.00;99779.49;5119013;56;1141245;-75
2023/10/13 18:57:21;;;;;;;12.86;6.18;;;;;;;18.49;100.00;99772.80;5070416;56;1140889;-77
2023/10/13 19:02:26;;;;;;;14.20;5.83;;;;;;;18.49;100.00;99764.77;5035678;57;1141133;-74
2023/10/13 19:07:31;;;;;;;13.13;5.90;;;;;;;18.54;100.00;99761.02;5026256;57;1141165;-74
2023/10/13 19:12:36;;;;;;;13.67;6.53;;;;;;;18.57;100.00;99773.21;5020138;57;1140991;-74
2023/10/13 19:17:44;;;;;;;17.73;7.40;;;;;;;18.54;100.00;99740.94;5040348;57;1141179;-75
2023/10/13 19:22:52;;;;;;;20.57;6.10;;;;;;;18.54;100.00;99740.94;5034698;56;1140893;-75
2023/10/13 19:27:57;;;;;;;18.40;5.53;;;;;;;18.60;100.00;99750.11;5064141;56;1141179;-75
2023/10/13 19:33:03;;;;;;;12.20;5.37;;;;;;;18.64;100.00;99754.58;5039873;56;1140885;-74
2023/10/13 19:38:08;;;;;;;14.05;6.75;;;;;;;18.68;100.00;99747.30;5065306;56;1141304;-74
2023/10/13 19:43:13;;;;;;;11.48;5.58;;;;;;;18.73;100.00;99739.53;5059070;56;1141189;-74
2023/10/13 19:48:18;;;;;;;16.90;5.28;;;;;;;18.80;100.00;99743.59;5044967;56;1140847;-73
2023/10/13 19:53:26;;;;;;;10.82;5.50;;;;;;;18.88;100.00;99760.39;5044831;56;1141036;-74
2023/10/13 19:58:29;;;;;;;15.00;6.47;;;;;;;19.02;100.00;99755.16;5024142;56;1140851;-74
2023/10/13 20:03:34;;;;;;;17.27;6.20;;;;;;;19.14;100.00;99747.74;5025150;56;1140853;-74
2023/10/13 20:08:40;;;;;;;16.62;5.95;;;;;;;19.19;100.00;99754.70;5095069;56;1141013;-74
2023/10/13 20:13:50;;;;;;;18.42;7.08;;;;;;;19.29;100.00;99756.53;5108582;55;1140973;-74
2023/10/13 20:19:01;;;;;;;21.00;6.35;;;;;;;19.40;100.00;99755.16;5106309;56;1140755;-74
2023/10/13 20:24:07;;;;;;;15.70;5.17;;;;;;;19.40;100.00;99749.00;5025992;56;1141010;-72
2023/10/13 20:29:17;;;;;;;13.53;5.42;;;;;;;19.39;100.00;99744.66;5044189;57;1141065;-73
2023/10/13 20:34:30;;;;;;;8.73;5.05;;;;;;;19.37;100.00;99736.81;5042665;56;1141142;-74
2023/10/13 20:39:32;;;;;;;20.05;5.58;;;;;;;19.36;100.00;99725.77;5067478;56;1138821;-73
2023/10/13 20:44:38;;;;;;;15.77;5.83;;;;;;;19.28;100.00;99722.70;5128165;56;1141003;-73
2023/10/13 20:49:45;;;;;;;20.45;5.45;;;;;;;19.28;100.00;99722.70;5108312;56;1140797;-73
2023/10/13 20:54:51;;;;;;;16.73;5.47;;;;;;;19.30;100.00;99707.76;5108332;56;1141143;-73
2023/10/13 20:59:58;;;;;;;14.47;5.30;;;;;;;19.26;100.00;99694.42;5094371;56;1140981;-72
2023/10/13 21:05:08;;;;;;;12.98;5.22;;;;;;;19.25;100.00;99690.08;5107232;56;1141093;-73
2023/10/13 21:10:16;;;;;;;15.68;6.60;;;;;;;19.28;100.00;99690.52;5046272;56;1140972;-73
2023/10/13 21:15:24;;;;;;;13.90;5.03;;;;;;;19.30;100.00;99685.80;5100578;56;1140824;-72
2023/10/13 21:20:28;;;;;;;12.90;5.47;;;;;;;19.29;100.00;99673.92;5108391;56;1140603;-73
2023/10/13 21:25:40;;;;;;;12.43;5.30;;;;;;;19.30;100.00;99674.25;5108952;56;1140764;-73
2023/10/13 21:30:45;;;;;;;15.88;5.75;;;;;;;19.29;100.00;99665.88;5097027;56;1140737;-73
2023/10/13 21:35:50;;;;;;;17.55;5.03;;;;;;;19.28;100.00;99662.38;5024697;57;1140975;-73
2023/10/13 21:40:56;;;;;;;11.73;5.17;;;;;;;19.32;100.00;99658.80;5106558;56;1141265;-73
2023/10/13 21:46:07;;;;;;;12.47;5.17;;;;;;;19.31;100.00;99647.24;5107866;56;1141161;-73
2023/10/13 21:51:15;;;;;;;10.25;5.40;;;;;;;19.28;100.00;99644.95;5127549;56;1140668;-72
2023/10/13 21:56:30;;;;;;;13.75;5.35;;;;;;;19.28;100.00;99640.09;5086539;56;1140638;-73
2023/10/13 22:01:43;;;;;;;11.57;5.47;;;;;;;19.27;100.00;99641.95;5020136;57;1140941;-73
2023/10/13 22:06:45;;;;;;;13.80;5.30;;;;;;;19.28;100.00;99630.71;5039651;57;1141051;-73
2023/10/13 22:11:52;;;;;;;18.17;5.85;;;;;;;19.32;100.00;99614.05;5021665;57;1140878;-73
2023/10/13 22:16:58;;;;;;;17.73;5.10;;;;;;;19.31;100.00;99615.58;5030744;57;1140935;-73
2023/10/13 22:22:04;;;;;;;10.32;4.97;;;;;;;19.28;100.00;99608.75;5030819;57;1140933;-73
2023/10/13 22:27:13;;;;;;;18.00;5.60;;;;;;;19.32;100.00;99617.23;5052414;56;1140945;-73
2023/10/13 22:32:19;;;;;;;20.57;5.50;;;;;;;19.33;100.00;99617.55;5035475;57;1141159;-73
2023/10/13 22:37:25;;;;;;;12.45;5.53;;;;;;;19.36;100.00;99594.88;5015575;57;1140987;-73
2023/10/13 22:42:30;;;;;;;19.00;5.00;;;;;;;19.41;100.00;99609.84;5053619;57;1141201;-73
2023/10/13 22:47:36;;;;;;;10.00;5.47;;;;;;;19.46;100.00;99592.14;5035386;57;1141183;-73
2023/10/13 22:52:43;;;;;;;17.05;5.35;;;;;;;19.50;100.00;99572.50;5035270;56;1140997;-73
2023/10/13 22:57:54;;;;;;;12.60;5.72;;;;;;;19.52;100.00;99579.84;5052798;56;1140837;-73
2023/10/13 23:03:00;;;;;;;16.30;5.50;;;;;;;19.51;100.00;99572.81;5025609;57;1140893;-73
2023/10/13 23:08:20;;;;;;;14.28;5.72;;;;;;;19.48;100.00;99594.63;5039504;57;1140927;-73
2023/10/13 23:13:22;;;;;;;12.20;5.40;;;;;;;19.45;100.00;99589.66;5012945;57;1140940;-73
2023/10/13 23:18:28;;;;;;;15.62;5.08;;;;;;;19.39;100.00;99560.97;4989413;57;1140865;-74
2023/10/13 23:23:32;;;;;;;9.97;4.90;;;;;;;19.37;100.00;99564.36;4955003;57;1141020;-73
2023/10/13 23:28:38;;;;;;;14.33;5.20;;;;;;;19.36;100.00;99539.92;5011480;58;1138747;-73
2023/10/13 23:33:44;;;;;;;15.53;4.65;;;;;;;19.32;100.00;99542.98;4991911;57;1141215;-73
2023/10/13 23:38:54;;;;;;;20.60;5.03;;;;;;;19.32;100.00;99528.75;4990660;57;1141212;-73
2023/10/13 23:44:00;;;;;;;10.90;5.50;;;;;;;19.28;100.00;99529.66;5010842;57;1140943;-73
2023/10/13 23:49:06;;;;;;;15.72;5.40;;;;;;;19.26;100.00;99534.91;4991633;57;1140976;-73
2023/10/13 23:54:16;;;;;;;10.45;5.30;;;;;;;19.26;100.00;99514.28;4990965;57;1140997;-73
2023/10/13 23:59:30;;;;;;;10.68;4.25;;;;;;;19.27;100.00;99485.63;5010992;57;1141107;-73
